Terminal Aerodrome Forecast
Issued by NWS Bismarck, ND

Home | Current Version | Previous Version | Graphics & Text | Print | Product List | Glossary On
Versions: 1 2 3 4 5 6 7 8 9 10 11 12 13 14 15 16 17 18 19 20 21 22 23 24 25 26
000
FTUS43 KBIS 042339
TAFISN
TAF
KISN 042339Z 0500/0524 16005KT P6SM BKN150
     FM050400 18005KT 4SM -SN BR BKN025 OVC050
     FM050800 24008KT P6SM VCSH BKN015
     FM051000 28011G19KT 4SM -SN BR OVC010
     FM051600 31018G28KT 3SM -SN BLSN BR OVC008=

USA.gov is the U.S. government's official web portal to all federal, state and local government web resources and services.